createdAt,value
2023-04-25T00:04:54.730Z,241.7
2023-04-25T00:09:53.984Z,240.4
2023-04-25T00:14:50.847Z,238.2
2023-04-25T00:19:51.176Z,237.2
2023-04-25T00:24:50.684Z,234.8
2023-04-25T00:29:48.703Z,236.1
2023-04-25T00:34:48.869Z,234.4
2023-04-25T00:39:48.283Z,236.5
2023-04-25T00:44:48.438Z,234.3
2023-04-25T00:49:48.300Z,232.7
2023-04-25T00:54:47.689Z,231
2023-04-25T00:59:24.644Z,233.8
2023-04-25T01:04:23.247Z,236.1
2023-04-25T01:14:22.416Z,234.5
2023-04-25T01:19:22.057Z,235
2023-04-25T01:29:19.598Z,229.3
2023-04-25T01:34:19.286Z,226.8
2023-04-25T01:44:16.673Z,230.7
2023-04-25T01:49:16.512Z,232.4
2023-04-25T01:59:14.794Z,234.6
2023-04-25T02:04:14.874Z,233.8
2023-04-25T02:14:13.905Z,232.6
2023-04-25T02:19:12.555Z,231.2
2023-04-25T02:34:10.978Z,214.7
2023-04-25T02:44:10.099Z,216.6
2023-04-25T03:05:29.913Z,205.2
2023-04-25T03:10:29.017Z,210.8
2023-04-25T03:15:28.382Z,211.6
2023-04-25T03:20:28.198Z,202.3
2023-04-25T03:25:27.608Z,207.2
2023-04-25T03:40:25.277Z,208
2023-04-25T03:45:24.844Z,200.1
2023-04-25T03:55:24.097Z,207.4
2023-04-25T05:04:21.619Z,204
2023-04-25T05:09:19.912Z,196.6
2023-04-25T05:14:19.539Z,195.9
2023-04-25T05:19:20.040Z,203.2
2023-04-25T05:24:17.519Z,193.9
2023-04-25T05:29:17.468Z,198.9
2023-04-25T05:34:16.699Z,199.4
2023-04-25T05:39:16.285Z,200.3
2023-04-25T05:44:17.276Z,197.6
2023-04-25T05:49:14.130Z,192.5
2023-04-25T05:54:14.740Z,204.5
2023-04-25T05:59:14.011Z,201.6
2023-04-25T06:04:15.617Z,204.6
2023-04-25T06:09:14.451Z,207.9
2023-04-25T06:14:13.537Z,202.1
2023-04-25T06:19:13.164Z,201.9
2023-04-25T06:24:12.080Z,208.4
2023-04-25T06:29:10.820Z,206.7
2023-04-25T06:34:11.553Z,204.1
2023-04-25T06:39:10.487Z,194.7
2023-04-25T06:44:09.668Z,207
2023-04-25T06:49:09.606Z,205.6
2023-04-25T06:54:09.270Z,217.7
2023-04-25T07:00:33.916Z,201.6
2023-04-25T07:05:29.964Z,209.2
2023-04-25T07:10:29.088Z,202.7
2023-04-25T07:15:28.189Z,208.7
2023-04-25T07:20:28.069Z,194.2
2023-04-25T07:25:26.519Z,206.6
2023-04-25T07:30:25.981Z,216
2023-04-25T07:35:26.217Z,223.9
2023-04-25T07:40:25.567Z,220.6
2023-04-25T07:45:24.822Z,212.8
2023-04-25T07:50:24.650Z,215
2023-04-25T07:55:24.235Z,213
2023-04-25T08:04:45.066Z,209.4
2023-04-25T09:04:25.563Z,196.4
2023-04-25T09:09:25.371Z,206.6
2023-04-25T09:14:24.825Z,203.9
2023-04-25T09:19:37.392Z,195.5
2023-04-25T09:24:22.883Z,210
2023-04-25T09:29:22.315Z,218.8
2023-04-25T09:34:24.157Z,229.7
2023-04-25T09:39:20.175Z,227
2023-04-25T09:44:19.535Z,219.1
2023-04-25T09:49:19.100Z,208.4
2023-04-25T09:54:18.351Z,203.9
2023-04-25T10:24:15.359Z,208.7
2023-04-25T10:29:14.982Z,208.3
2023-04-25T10:39:15.087Z,216.8
2023-04-25T10:44:14.655Z,224.1
2023-04-25T10:59:15.220Z,217.2
2023-04-25T12:05:44.879Z,212.5
2023-04-25T12:30:25.682Z,227.6
2023-04-25T12:59:54.966Z,235.9
2023-04-25T13:04:52.047Z,236.9
2023-04-25T13:09:50.842Z,235
2023-04-25T13:14:50.802Z,219.7
2023-04-25T13:19:48.913Z,238.9
2023-04-25T13:24:48.730Z,222.6
2023-04-25T13:29:48.721Z,224.6
2023-04-25T13:34:48.059Z,237.6
2023-04-25T13:39:48.462Z,226.4
2023-04-25T13:44:47.753Z,233.4
2023-04-25T13:49:49.308Z,222.8
2023-04-25T13:54:35.730Z,241.8
2023-04-25T13:59:23.259Z,228.3
2023-04-25T14:04:23.100Z,232.6
2023-04-25T14:09:22.865Z,226.4
2023-04-25T14:14:20.468Z,222.8
2023-04-25T14:19:21.628Z,227.4
2023-04-25T14:24:20.082Z,229.9
2023-04-25T14:29:19.198Z,226.4
2023-04-25T14:34:20.872Z,238
2023-04-25T14:39:19.040Z,239.4
2023-04-25T14:44:18.382Z,234
2023-04-25T14:49:19.407Z,239.8
2023-04-25T14:54:16.462Z,236.3
2023-04-25T14:59:16.050Z,238.6
2023-04-25T15:04:17.556Z,239
2023-04-25T15:09:15.941Z,237.1
2023-04-25T15:14:15.018Z,235.7
2023-04-25T15:19:13.878Z,235.5
2023-04-25T15:24:14.219Z,234.4
2023-04-25T17:04:28.314Z,225
2023-04-25T17:09:28.763Z,231.6
2023-04-25T17:14:26.405Z,233.5
2023-04-25T17:19:26.213Z,234.7
2023-04-25T17:24:25.732Z,235.8
2023-04-25T17:29:25.200Z,235.3
2023-04-25T17:34:25.669Z,226.5
2023-04-25T17:39:23.164Z,229.9
2023-04-25T17:44:23.383Z,229.2
2023-04-25T17:49:22.976Z,229.7
2023-04-25T17:54:21.721Z,231.2
2023-04-25T18:39:32.271Z,231.5
2023-04-25T18:44:16.091Z,233.4
2023-04-25T18:54:15.442Z,230.1
2023-04-25T18:59:15.050Z,228.5
2023-04-25T19:04:17.270Z,229.3
2023-04-25T19:09:14.317Z,227.2
2023-04-25T19:14:13.792Z,225.9
2023-04-25T19:19:11.509Z,226.6
2023-04-25T19:24:10.569Z,223.1
2023-04-25T19:29:10.837Z,222.3
2023-04-25T19:34:09.928Z,222.2
2023-04-25T19:39:09.106Z,221.4
2023-04-25T20:05:28.742Z,219.3
2023-04-25T20:20:25.935Z,226.1
2023-04-25T20:25:25.636Z,220.2
2023-04-25T20:30:25.896Z,219.3
2023-04-25T20:35:25.103Z,224.3
2023-04-25T20:59:44.825Z,219.4
2023-04-25T21:04:45.121Z,218.5
2023-04-25T21:09:44.343Z,218.5
2023-04-25T21:14:43.879Z,217.2
2023-04-25T21:19:53.583Z,225.5
2023-04-25T21:24:53.628Z,222
2023-04-25T21:29:53.264Z,224.7
2023-04-25T21:34:54.707Z,224.6
2023-04-25T21:39:51.832Z,219.7
2023-04-25T21:44:50.834Z,221.8
2023-04-25T21:49:52.601Z,222
2023-04-25T21:54:47.009Z,223.9
2023-04-25T21:59:26.056Z,223.1
2023-04-25T22:04:27.857Z,225.5
2023-04-25T22:09:24.647Z,228
2023-04-25T22:14:24.322Z,226.2
2023-04-25T22:19:24.131Z,220.9
2023-04-25T22:24:23.136Z,223
2023-04-25T22:29:22.946Z,222.4
2023-04-25T22:34:22.435Z,224
2023-04-25T22:39:22.201Z,225.9
2023-04-25T22:44:22.768Z,222
2023-04-25T22:49:19.401Z,219.3
2023-04-25T22:54:19.782Z,223.5
2023-04-25T22:59:19.023Z,223.6
2023-04-25T23:04:19.416Z,221.1
2023-04-25T23:09:17.742Z,218.1
2023-04-25T23:14:17.740Z,218.1
2023-04-25T23:19:16.966Z,222.6
2023-04-25T23:24:17.978Z,217.4
2023-04-25T23:29:15.889Z,217.4
2023-04-25T23:34:14.926Z,219.9
